createdAt,value
2022-09-22T00:01:37.214Z,101455.84
2022-09-22T00:04:08.224Z,101457.03
2022-09-22T00:06:39.226Z,101454.16
2022-09-22T00:09:10.109Z,101448.84
2022-09-22T00:11:40.632Z,101455.75
2022-09-22T00:14:11.009Z,101451.25
2022-09-22T00:16:42.818Z,101454.28
2022-09-22T00:19:12.927Z,101458.97
2022-09-22T00:21:40.955Z,101454.88
2022-09-22T00:24:09.297Z,101451.59
2022-09-22T00:26:39.031Z,101450.16
2022-09-22T00:29:10.219Z,101452.16
2022-09-22T00:31:40.952Z,101445.41
2022-09-22T00:34:10.289Z,101451.75
2022-09-22T00:36:38.457Z,101440.47
2022-09-22T00:39:06.727Z,101439.88
2022-09-22T00:41:37.304Z,101446.19
2022-09-22T00:44:37.689Z,101444.53
2022-09-22T00:47:16.399Z,101440.88
2022-09-22T00:49:51.156Z,101432.28
2022-09-22T00:52:23.909Z,101433.66
2022-09-22T00:54:56.788Z,101432.03
2022-09-22T00:57:28.226Z,101438.56
2022-09-22T00:59:57.117Z,101431.78
2022-09-22T01:02:26.806Z,101427.50
2022-09-22T01:04:55.988Z,101428.69
2022-09-22T01:07:27.464Z,101418.28
2022-09-22T01:09:55.612Z,101415.16
2022-09-22T01:12:25.878Z,101417.00
2022-09-22T01:15:08.539Z,101413.75
2022-09-22T01:17:48.491Z,101411.28
2022-09-22T01:20:55.829Z,101411.66
2022-09-22T01:24:11.868Z,101404.72
2022-09-22T01:27:21.642Z,101402.22
2022-09-22T01:30:11.073Z,101400.78
2022-09-22T01:32:48.054Z,101405.47
2022-09-22T01:35:23.265Z,101400.34
2022-09-22T01:37:59.901Z,101396.25
2022-09-22T01:40:34.423Z,101393.16
2022-09-22T01:43:12.645Z,101391.53
2022-09-22T01:45:44.508Z,101391.91
2022-09-22T01:48:16.929Z,101392.09
2022-09-22T01:50:50.246Z,101386.09
2022-09-22T01:53:24.145Z,101385.50
2022-09-22T01:55:55.428Z,101395.47
2022-09-22T02:01:26.160Z,101387.06
2022-09-22T02:03:58.933Z,101387.28
2022-09-22T02:06:33.290Z,101385.59
2022-09-22T02:09:06.958Z,101380.50
2022-09-22T02:11:35.384Z,101373.94
2022-09-22T02:14:05.083Z,101376.78
2022-09-22T02:16:35.647Z,101381.47
2022-09-22T02:19:13.283Z,101374.50
2022-09-22T02:21:45.204Z,101367.97
2022-09-22T02:24:28.857Z,101365.31
2022-09-22T02:26:58.561Z,101365.47
2022-09-22T02:29:29.875Z,101361.38
2022-09-22T02:31:59.931Z,101362.56
2022-09-22T02:34:28.560Z,101351.53
2022-09-22T02:37:02.265Z,101352.53
2022-09-22T02:39:37.766Z,101343.75
2022-09-22T02:42:17.063Z,101350.91
2022-09-22T02:44:49.450Z,101346.81
2022-09-22T02:47:23.981Z,101341.66
2022-09-22T02:49:54.396Z,101341.25
2022-09-22T02:52:24.904Z,101349.19
2022-09-22T02:54:54.577Z,101345.09
2022-09-22T02:57:22.482Z,101337.50
2022-09-22T02:59:50.918Z,101338.72
2022-09-22T03:02:20.520Z,101336.25
2022-09-22T03:04:48.351Z,101336.63
2022-09-22T03:07:16.710Z,101338.44
2022-09-22T03:09:44.900Z,101338.66
2022-09-22T03:12:12.719Z,101335.34
2022-09-22T03:14:40.959Z,101333.72
2022-09-22T03:17:09.094Z,101332.91
2022-09-22T03:19:38.182Z,101322.50
2022-09-22T03:22:06.748Z,101333.25
2022-09-22T03:24:35.118Z,101331.44
2022-09-22T03:27:02.862Z,101328.16
2022-09-22T03:29:31.079Z,101325.88
2022-09-22T03:31:59.389Z,101328.34
2022-09-22T03:34:27.222Z,101326.72
2022-09-22T03:36:56.901Z,101329.38
2022-09-22T03:39:25.218Z,101326.06
2022-09-22T03:41:52.969Z,101319.94
2022-09-22T03:44:21.173Z,101320.97
2022-09-22T03:46:49.585Z,101324.63
2022-09-22T03:49:17.317Z,101317.66
2022-09-22T03:51:45.774Z,101322.16
2022-09-22T03:54:14.964Z,101317.66
2022-09-22T03:56:42.734Z,101316.22
2022-09-22T03:59:11.929Z,101319.06
2022-09-22T04:01:40.237Z,101317.25
2022-09-22T04:04:08.365Z,101317.41
2022-09-22T04:06:39.155Z,101306.00
2022-09-22T04:09:07.814Z,101312.31
2022-09-22T04:11:37.541Z,101303.53
2022-09-22T04:14:05.831Z,101313.31
2022-09-22T04:16:33.670Z,101313.50
2022-09-22T04:19:05.408Z,101316.16
2022-09-22T04:21:33.850Z,101313.50
2022-09-22T04:24:01.932Z,101311.84
2022-09-22T04:26:30.565Z,101308.56
2022-09-22T04:29:00.387Z,101308.78
2022-09-22T04:31:28.228Z,101308.13
2022-09-22T04:33:56.551Z,101308.31
2022-09-22T04:36:24.864Z,101309.31
2022-09-22T04:38:52.670Z,101304.38
2022-09-22T04:41:21.069Z,101303.56
2022-09-22T04:43:49.224Z,101297.47
2022-09-22T04:46:18.599Z,101303.78
2022-09-22T04:48:46.817Z,101303.13
2022-09-22T04:51:15.304Z,101307.59
2022-09-22T04:53:43.491Z,101308.81
2022-09-22T04:56:11.857Z,101295.72
2022-09-22T04:58:40.180Z,101302.84
2022-09-22T05:01:08.330Z,101303.03
2022-09-22T05:03:39.503Z,101313.44
2022-09-22T05:06:08.698Z,101302.59
2022-09-22T05:08:36.509Z,101309.72
2022-09-22T05:11:07.222Z,101306.25
2022-09-22T05:13:35.793Z,101304.59
2022-09-22T05:16:05.534Z,101311.91
2022-09-22T05:18:33.883Z,101310.66
2022-09-22T05:21:03.893Z,101312.28
2022-09-22T05:23:32.244Z,101312.63
2022-09-22T05:26:00.486Z,101316.28
2022-09-22T05:28:28.786Z,101316.66
2022-09-22T05:30:56.557Z,101316.66
2022-09-22T05:33:24.709Z,101295.50
2022-09-22T05:35:52.844Z,101311.75
2022-09-22T05:38:22.036Z,101321.31
2022-09-22T05:40:50.280Z,101320.50
2022-09-22T05:43:18.469Z,101319.69
2022-09-22T05:45:46.247Z,101322.34
2022-09-22T05:48:14.652Z,101326.81
2022-09-22T05:50:42.687Z,101326.81
2022-09-22T05:53:11.289Z,101329.63
2022-09-22T05:55:42.021Z,101329.25
2022-09-22T05:58:12.228Z,101333.75
2022-09-22T06:00:41.540Z,101326.81
2022-09-22T06:03:10.313Z,101322.34
2022-09-22T06:05:39.487Z,101329.25
2022-09-22T06:08:08.431Z,101324.97
2022-09-22T06:10:38.736Z,101330.09
2022-09-22T06:13:10.825Z,101335.84
2022-09-22T06:15:39.792Z,101328.72
2022-09-22T06:18:14.932Z,101329.72
2022-09-22T06:20:44.288Z,101334.63
2022-09-22T06:23:15.922Z,101334.47
2022-09-22T06:25:44.539Z,101329.81
2022-09-22T06:28:15.871Z,101323.34
2022-09-22T06:30:43.991Z,101327.44
2022-09-22T06:33:12.606Z,101323.59
2022-09-22T06:35:43.369Z,101325.88
2022-09-22T06:38:15.172Z,101325.50
2022-09-22T06:40:43.827Z,101327.59
2022-09-22T06:43:20.735Z,101324.81
2022-09-22T06:45:49.097Z,101325.09
2022-09-22T06:48:16.907Z,101329.47
2022-09-22T06:50:49.744Z,101329.78
2022-09-22T06:53:19.041Z,101319.91
2022-09-22T06:55:47.146Z,101323.06
2022-09-22T06:58:17.470Z,101318.06
2022-09-22T07:00:45.383Z,101326.53
2022-09-22T07:03:20.029Z,101321.16
2022-09-22T07:05:55.626Z,101320.47
2022-09-22T07:08:24.568Z,101325.44
2022-09-22T07:10:56.768Z,101320.06
2022-09-22T07:13:30.044Z,101322.16
2022-09-22T07:16:01.305Z,101321.22
2022-09-22T07:18:29.336Z,101313.53
2022-09-22T07:21:03.635Z,101317.69
2022-09-22T07:23:31.451Z,101312.81
2022-09-22T07:26:00.894Z,101323.50
2022-09-22T07:28:30.458Z,101319.88
2022-09-22T07:31:06.209Z,101322.81
2022-09-22T07:33:34.749Z,101328.78
2022-09-22T07:36:05.669Z,101329.63
2022-09-22T07:38:33.990Z,101323.91
2022-09-22T07:41:02.622Z,101323.13
2022-09-22T07:43:35.157Z,101318.78
2022-09-22T07:46:03.851Z,101324.09
2022-09-22T07:48:37.682Z,101320.19
2022-09-22T07:51:06.843Z,101310.97
2022-09-22T07:53:34.740Z,101316.03
2022-09-22T07:56:07.469Z,101320.72
2022-09-22T07:58:36.613Z,101314.31
2022-09-22T08:01:09.341Z,101302.56
2022-09-22T08:03:38.103Z,101312.94
2022-09-22T08:06:10.512Z,101307.28
2022-09-22T08:08:42.670Z,101306.00
2022-09-22T08:11:13.820Z,101304.25
2022-09-22T08:13:44.317Z,101308.69
2022-09-22T08:16:12.138Z,101306.94
2022-09-22T08:18:41.023Z,101305.16
2022-09-22T08:21:08.930Z,101298.50
2022-09-22T08:23:37.944Z,101309.50
2022-09-22T08:26:09.357Z,101302.41
2022-09-22T08:28:37.127Z,101295.75
2022-09-22T08:31:13.436Z,101299.31
2022-09-22T08:33:42.344Z,101294.28
2022-09-22T08:36:10.505Z,101300.13
2022-09-22T08:38:39.134Z,101298.56
2022-09-22T08:41:17.509Z,101299.41
2022-09-22T08:43:50.485Z,101304.03
2022-09-22T08:46:20.051Z,101302.63
2022-09-22T08:49:07.647Z,101302.09
2022-09-22T08:51:55.520Z,101310.97
2022-09-22T08:54:29.455Z,101305.09
2022-09-22T08:57:21.687Z,101305.34
2022-09-22T08:59:55.700Z,101302.13
2022-09-22T09:02:35.409Z,101309.59
2022-09-22T09:05:46.538Z,101302.81
2022-09-22T09:08:50.919Z,101305.72
2022-09-22T09:11:32.121Z,101298.41
2022-09-22T09:14:16.947Z,101305.06
2022-09-22T09:16:48.937Z,101305.72
2022-09-22T09:19:21.641Z,101303.75
2022-09-22T09:21:52.667Z,101297.50
2022-09-22T09:27:21.274Z,101291.03
2022-09-22T09:29:59.935Z,101293.03
2022-09-22T09:32:34.525Z,101290.44
2022-09-22T09:37:33.413Z,101282.03
2022-09-22T09:40:04.890Z,101297.16
2022-09-22T09:42:36.800Z,101296.22
2022-09-22T09:45:07.728Z,101290.13
2022-09-22T09:48:01.609Z,101288.28
2022-09-22T09:50:32.662Z,101288.25
2022-09-22T09:53:00.994Z,101296.38
2022-09-22T09:55:29.041Z,101286.81
2022-09-22T09:58:11.178Z,101281.28
2022-09-22T10:00:55.967Z,101281.38
2022-09-22T10:03:30.532Z,101280.88
2022-09-22T10:06:03.365Z,101278.31
2022-09-22T10:08:36.474Z,101286.44
2022-09-22T10:11:05.561Z,101276.31
2022-09-22T10:13:36.121Z,101280.69
2022-09-22T10:16:20.886Z,101277.84
2022-09-22T10:18:49.898Z,101280.41
2022-09-22T10:21:21.121Z,101268.69
2022-09-22T10:23:50.200Z,101270.63
2022-09-22T10:26:21.857Z,101265.34
2022-09-22T10:29:14.194Z,101272.66
2022-09-22T10:31:43.092Z,101269.47
2022-09-22T10:34:31.270Z,101260.69
2022-09-22T10:37:01.971Z,101256.19
2022-09-22T10:39:40.121Z,101258.97
2022-09-22T10:42:20.034Z,101250.75
2022-09-22T10:44:49.053Z,101251.06
2022-09-22T10:47:31.589Z,101249.59
2022-09-22T10:50:28.952Z,101247.56
2022-09-22T10:53:08.136Z,101241.19
2022-09-22T10:55:42.710Z,101237.75
2022-09-22T10:58:27.534Z,101231.63
2022-09-22T11:01:11.463Z,101236.25
2022-09-22T11:04:27.172Z,101231.16
2022-09-22T11:07:37.867Z,101222.34
2022-09-22T11:10:38.155Z,101232.34
2022-09-22T11:13:21.045Z,101213.03
2022-09-22T11:16:13.689Z,101217.66
2022-09-22T11:19:01.220Z,101219.03
2022-09-22T11:21:44.971Z,101224.72
2022-09-22T11:24:25.396Z,101222.59
2022-09-22T11:26:57.809Z,101222.09
2022-09-22T11:29:57.424Z,101213.75
2022-09-22T11:32:47.996Z,101204.38
2022-09-22T11:35:48.765Z,101204.13
2022-09-22T11:38:29.204Z,101199.06
2022-09-22T11:41:18.916Z,101197.72
2022-09-22T11:44:15.321Z,101196.41
2022-09-22T11:47:01.028Z,101190.28
2022-09-22T11:49:45.887Z,101185.47
2022-09-22T11:52:27.793Z,101188.75
2022-09-22T11:55:19.193Z,101186.59
2022-09-22T11:57:50.734Z,101182.81
2022-09-22T12:00:22.515Z,101180.72
2022-09-22T12:03:02.072Z,101175.06
2022-09-22T12:05:35.749Z,101174.81
2022-09-22T12:08:07.405Z,101165.66
2022-09-22T12:10:38.510Z,101159.22
2022-09-22T12:13:12.001Z,101159.78
2022-09-22T12:15:49.048Z,101156.81
2022-09-22T12:18:24.211Z,101152.25
2022-09-22T12:21:00.906Z,101160.09
2022-09-22T12:23:40.911Z,101150.66
2022-09-22T12:26:12.581Z,101140.97
2022-09-22T12:28:43.185Z,101144.22
2022-09-22T12:31:15.753Z,101137.78
2022-09-22T12:33:49.871Z,101137.50
2022-09-22T12:36:20.458Z,101136.72
2022-09-22T12:38:48.337Z,101136.97
2022-09-22T12:41:21.757Z,101135.91
2022-09-22T12:43:49.529Z,101135.09
2022-09-22T12:46:28.358Z,101121.06
2022-09-22T12:48:56.244Z,101127.53
2022-09-22T12:51:35.025Z,101122.69
2022-09-22T12:54:47.415Z,101113.81
2022-09-22T12:57:48.954Z,101125.94
2022-09-22T13:00:32.277Z,101115.19
2022-09-22T13:03:49.741Z,101120.03
2022-09-22T13:06:50.790Z,101110.91
2022-09-22T13:09:22.660Z,101107.41
2022-09-22T13:12:28.510Z,101113.03
2022-09-22T13:15:23.779Z,101095.25
2022-09-22T13:17:52.179Z,101097.41
2022-09-22T13:20:31.051Z,101098.22
2022-09-22T13:23:05.801Z,101089.34
2022-09-22T13:25:34.346Z,101087.69
2022-09-22T13:28:11.608Z,101081.28
2022-09-22T13:30:41.952Z,101083.38
2022-09-22T13:33:20.121Z,101085.00
2022-09-22T13:35:58.333Z,101071.56
2022-09-22T13:38:26.469Z,101080.69
2022-09-22T13:40:55.187Z,101072.63
2022-09-22T13:43:28.858Z,101075.31
2022-09-22T13:45:59.586Z,101067.50
2022-09-22T13:48:31.226Z,101072.63
2022-09-22T13:51:04.452Z,101068.84
2022-09-22T13:53:33.233Z,101064.56
2022-09-22T13:56:01.131Z,101056.47
2022-09-22T13:58:36.925Z,101068.84
2022-09-22T14:01:14.176Z,101061.06
2022-09-22T14:03:43.117Z,101061.88
2022-09-22T14:06:16.324Z,101046.53
2022-09-22T14:08:46.000Z,101051.09
2022-09-22T14:11:16.217Z,101042.22
2022-09-22T14:13:57.853Z,101034.16
2022-09-22T14:16:29.573Z,101036.84
2022-09-22T14:19:03.278Z,101031.19
2022-09-22T14:21:33.380Z,101026.88
2022-09-22T14:24:02.134Z,101029.56
2022-09-22T14:26:35.996Z,101030.66
2022-09-22T14:29:18.672Z,101025.28
2022-09-22T14:31:50.708Z,101025.78
2022-09-22T14:34:24.401Z,101025.78
2022-09-22T14:36:55.213Z,101021.47
2022-09-22T14:39:31.425Z,101012.06
2022-09-22T14:42:07.329Z,101014.47
2022-09-22T14:44:41.160Z,101014.47
2022-09-22T14:47:11.460Z,101007.47
2022-09-22T14:49:42.054Z,101005.31
2022-09-22T14:52:22.493Z,101008.59
2022-09-22T14:54:51.111Z,101003.72
2022-09-22T14:57:19.097Z,101004.78
2022-09-22T15:00:11.377Z,101001.28
2022-09-22T15:02:41.691Z,101000.47
2022-09-22T15:05:11.984Z,100997.22
2022-09-22T15:07:49.171Z,100997.50
2022-09-22T15:10:27.057Z,101001.50
2022-09-22T15:12:56.576Z,101000.44
2022-09-22T15:15:26.662Z,101003.63
2022-09-22T15:18:16.318Z,100993.09
2022-09-22T15:20:47.704Z,100996.84
2022-09-22T15:23:23.075Z,101004.91
2022-09-22T15:25:51.982Z,101006.31
2022-09-22T15:28:23.008Z,100998.47
2022-09-22T15:30:52.900Z,100992.28
2022-09-22T15:33:21.914Z,100998.72
2022-09-22T15:35:53.940Z,100994.41
2022-09-22T15:38:26.844Z,100983.66
2022-09-22T15:40:55.709Z,100986.88
2022-09-22T15:43:29.220Z,100999.50
2022-09-22T15:46:01.393Z,100986.88
2022-09-22T15:48:32.272Z,100998.69
2022-09-22T15:51:04.711Z,100991.69
2022-09-22T15:53:35.399Z,100993.84
2022-09-22T15:56:06.515Z,100992.22
2022-09-22T15:58:36.436Z,100993.53
2022-09-22T16:01:05.582Z,100991.94
2022-09-22T16:03:37.946Z,100987.31
2022-09-22T16:06:13.063Z,100990.00
2022-09-22T16:08:46.598Z,100989.19
2022-09-22T16:11:16.754Z,100980.84
2022-09-22T16:13:44.549Z,100978.66
2022-09-22T16:16:12.705Z,100980.78
2022-09-22T16:18:42.229Z,100985.88
2022-09-22T16:21:20.723Z,100981.84
2022-09-22T16:23:50.448Z,100978.31
2022-09-22T16:26:18.149Z,100976.66
2022-09-22T16:28:45.843Z,100977.16
2022-09-22T16:31:14.740Z,100974.69
2022-09-22T16:33:43.881Z,100976.25
2022-09-22T16:36:12.232Z,100962.19
2022-09-22T16:38:39.949Z,100964.84
2022-09-22T16:41:20.099Z,100971.81
2022-09-22T16:43:47.956Z,100967.69
2022-09-22T16:46:28.305Z,100962.75
2022-09-22T16:48:58.879Z,100964.59
2022-09-22T16:51:27.375Z,100963.72
2022-09-22T16:53:55.167Z,100964.75
2022-09-22T16:56:26.311Z,100955.56
2022-09-22T16:58:55.463Z,100957.66
2022-09-22T17:01:23.784Z,100956.53
2022-09-22T17:03:53.371Z,100961.03
2022-09-22T17:06:25.290Z,100956.41
2022-09-22T17:08:54.228Z,100957.44
2022-09-22T17:11:29.446Z,100961.66
2022-09-22T17:14:00.028Z,100957.03
2022-09-22T17:16:29.933Z,100955.91
2022-09-22T17:18:59.620Z,100952.09
2022-09-22T17:21:32.288Z,100953.06
2022-09-22T17:24:01.865Z,100957.31
2022-09-22T17:26:33.502Z,100949.47
2022-09-22T17:29:01.780Z,100951.00
2022-09-22T17:31:31.204Z,100943.72
2022-09-22T17:34:00.099Z,100946.31
2022-09-22T17:36:29.473Z,100948.94
2022-09-22T17:38:59.115Z,100949.44
2022-09-22T17:41:28.833Z,100942.63
2022-09-22T17:44:00.966Z,100947.66
2022-09-22T17:46:31.406Z,100938.75
2022-09-22T17:49:16.997Z,100951.25
2022-09-22T17:52:04.285Z,100943.16
2022-09-22T17:54:51.323Z,100950.56
2022-09-22T17:57:22.122Z,100948.03
2022-09-22T17:59:51.926Z,100950.63
2022-09-22T18:02:21.264Z,100955.91
2022-09-22T18:04:49.712Z,100951.75
2022-09-22T18:07:19.543Z,100945.72
2022-09-22T18:09:50.006Z,100940.06
2022-09-22T18:12:21.444Z,100942.66
2022-09-22T18:14:52.602Z,100939.09
2022-09-22T18:17:22.017Z,100949.69
2022-09-22T18:19:49.810Z,100937.84
2022-09-22T18:22:21.486Z,100936.94
2022-09-22T18:24:50.579Z,100936.03
2022-09-22T18:27:20.666Z,100943.75
2022-09-22T18:29:50.354Z,100941.19
2022-09-22T18:32:20.226Z,100940.06
2022-09-22T18:34:53.471Z,100946.94
2022-09-22T18:37:21.685Z,100948.22
2022-09-22T18:39:50.498Z,100943.03
2022-09-22T18:42:19.543Z,100952.13
2022-09-22T18:44:47.967Z,100952.56
2022-09-22T18:47:18.858Z,100959.44
2022-09-22T18:49:51.241Z,100956.47
2022-09-22T18:52:23.453Z,100955.06
2022-09-22T18:54:53.110Z,100959.22
2022-09-22T18:57:21.730Z,100960.53
2022-09-22T18:59:51.514Z,100955.88
2022-09-22T19:02:22.625Z,100954.72
2022-09-22T19:04:52.755Z,100952.28
2022-09-22T19:07:42.503Z,100951.13
2022-09-22T19:10:12.777Z,100949.41
2022-09-22T19:12:41.008Z,100949.63
2022-09-22T19:15:14.059Z,100950.13
2022-09-22T19:17:44.431Z,100950.00
2022-09-22T19:20:17.724Z,100963.63
2022-09-22T19:22:47.016Z,100956.31
2022-09-22T19:25:15.427Z,100965.84
2022-09-22T19:27:44.014Z,100964.44
2022-09-22T19:30:13.042Z,100962.44
2022-09-22T19:32:41.690Z,100962.94
2022-09-22T19:35:11.023Z,100961.78
2022-09-22T19:37:41.255Z,100959.78
2022-09-22T19:40:13.098Z,100956.56
2022-09-22T19:42:41.051Z,100953.53
2022-09-22T19:45:09.510Z,100962.81
2022-09-22T19:47:38.589Z,100964.09
2022-09-22T19:50:08.601Z,100964.56
2022-09-22T19:52:36.789Z,100957.22
2022-09-22T19:55:07.065Z,100971.63
2022-09-22T19:57:41.399Z,100956.78
2022-09-22T20:00:10.980Z,100954.91
2022-09-22T20:02:38.796Z,100959.34
2022-09-22T20:05:18.385Z,100951.31
2022-09-22T20:07:46.124Z,100943.16
2022-09-22T20:10:17.127Z,100942.78
2022-09-22T20:12:45.374Z,100946.97
2022-09-22T20:15:15.808Z,100947.66
2022-09-22T20:17:46.261Z,100941.94
2022-09-22T20:20:15.499Z,100939.16
2022-09-22T20:22:43.608Z,100941.50
2022-09-22T20:25:23.005Z,100936.59
2022-09-22T20:27:50.805Z,100941.81
2022-09-22T20:30:19.287Z,100942.50
2022-09-22T20:32:47.989Z,100939.25
2022-09-22T20:35:18.991Z,100945.03
2022-09-22T20:37:47.257Z,100939.31
2022-09-22T20:40:20.451Z,100935.28
2022-09-22T20:42:49.817Z,100930.38
2022-09-22T20:45:18.659Z,100926.78
2022-09-22T20:47:46.416Z,100924.34
2022-09-22T20:50:14.788Z,100923.97
2022-09-22T20:52:43.513Z,100928.72
2022-09-22T20:55:12.131Z,100929.16
2022-09-22T20:57:41.271Z,100925.13
2022-09-22T21:00:10.356Z,100925.78
2022-09-22T21:02:39.349Z,100924.38
2022-09-22T21:05:07.504Z,100923.00
2022-09-22T21:07:35.246Z,100921.81
2022-09-22T21:10:20.780Z,100918.56
2022-09-22T21:12:50.721Z,100920.63
2022-09-22T21:15:20.304Z,100913.09
2022-09-22T21:17:48.592Z,100917.81
2022-09-22T21:20:16.492Z,100914.78
2022-09-22T21:22:44.930Z,100905.59
2022-09-22T21:25:12.914Z,100909.53
2022-09-22T21:27:40.864Z,100906.47
2022-09-22T21:30:11.421Z,100899.75
2022-09-22T21:32:39.410Z,100911.09
2022-09-22T21:35:08.619Z,100893.09
2022-09-22T21:37:36.341Z,100897.84
2022-09-22T21:40:04.357Z,100890.53
2022-09-22T21:42:32.428Z,100896.06
2022-09-22T21:45:01.300Z,100900.22
2022-09-22T21:47:31.271Z,100896.16
2022-09-22T21:49:59.577Z,100894.75
2022-09-22T21:52:27.332Z,100884.53
2022-09-22T21:54:56.631Z,100875.97
2022-09-22T21:57:24.417Z,100871.88
2022-09-22T21:59:54.911Z,100879.50
2022-09-22T22:02:24.479Z,100871.97
2022-09-22T22:04:55.678Z,100872.41
2022-09-22T22:07:23.455Z,100871.00
2022-09-22T22:09:51.201Z,100873.06
2022-09-22T22:12:19.311Z,100872.72
2022-09-22T22:14:47.145Z,100867.81
2022-09-22T22:17:15.121Z,100870.09
2022-09-22T22:19:42.857Z,100871.94
2022-09-22T22:22:11.990Z,100868.72
2022-09-22T22:24:42.850Z,100868.31
2022-09-22T22:27:11.811Z,100864.84
2022-09-22T22:29:39.784Z,100867.94
2022-09-22T22:32:10.860Z,100862.25
2022-09-22T22:34:39.136Z,100859.81
2022-09-22T22:37:09.623Z,100861.06
2022-09-22T22:39:39.359Z,100855.13
2022-09-22T22:42:07.970Z,100854.78
2022-09-22T22:44:35.986Z,100853.34
2022-09-22T22:47:04.100Z,100845.59
2022-09-22T22:49:32.490Z,100846.03
2022-09-22T22:52:00.671Z,100841.16
2022-09-22T22:54:28.386Z,100843.22
2022-09-22T22:56:57.719Z,100847.13
2022-09-22T22:59:25.453Z,100852.06
2022-09-22T23:01:53.660Z,100856.78
2022-09-22T23:04:22.090Z,100845.53
2022-09-22T23:06:49.844Z,100842.28
2022-09-22T23:09:18.345Z,100839.00
2022-09-22T23:11:46.788Z,100829.63
2022-09-22T23:14:16.380Z,100833.09
2022-09-22T23:16:46.988Z,100839.47
2022-09-22T23:19:17.056Z,100833.53
2022-09-22T23:21:46.622Z,100835.38
2022-09-22T23:24:16.315Z,100823.94
2022-09-22T23:26:46.753Z,100819.66
2022-09-22T23:29:16.134Z,100823.34
2022-09-22T23:31:43.900Z,100825.38
2022-09-22T23:34:12.041Z,100825.84
2022-09-22T23:36:40.575Z,100814.38
2022-09-22T23:39:08.833Z,100808.69
2022-09-22T23:41:37.828Z,100809.25
2022-09-22T23:44:06.718Z,100806.84
2022-09-22T23:46:37.890Z,100803.34
2022-09-22T23:49:06.610Z,100806.44
2022-09-22T23:51:34.679Z,100805.88
2022-09-22T23:54:02.497Z,100813.22
2022-09-22T23:56:30.288Z,100806.28
2022-09-22T23:58:58.439Z,100800.81
